Terminal Aerodrome Forecast
Issued by NWS

Home | Current Version | Previous Version | Text Only | Print | Product List | Glossary On
Versions: 1 2 3 4 5 6 7 8 9 10 11 12 13 14 15 16 17 18 19 20 21 22 23 24 25 26
592
FTUS45 KGJT 151120
TAFTEX
TAF
KTEX 151120Z 1512/1612 13005KT P6SM SCT250
     FM151700 24005KT P6SM SCT060 OVC100
     FM160300 14005KT P6SM VCSH OVC070
     FM160600 17006KT P6SM VCSH BKN045=

USA.gov is the U.S. government's official web portal to all federal, state and local government web resources and services.